Time;durP1;ratioP1;P1;durP2;ratioP2;P2;SDS_P1;SDS_P2;PMS_P1;PMS_P2;Temp;Humidity;BMP_temperature;BMP_pressure;BME280_temperature;BME280_humidity;BME280_pressure;Samples;Min_cycle;Max_cycle;Signal;HPM_P1;HPM_P2
2021/03/13 00:01:42;;;;;;;65.40;35.37;;;;;;;0.59;66.12;100497.25;125605;1097;104182;-77
2021/03/13 00:04:11;;;;;;;65.63;35.20;;;;;;;0.61;66.50;100499.18;125636;1099;104294;-77
2021/03/13 00:06:40;;;;;;;69.67;34.80;;;;;;;0.64;66.77;100498.48;125593;1099;104174;-77
2021/03/13 00:09:09;;;;;;;64.27;33.57;;;;;;;0.66;66.53;100497.83;125667;1098;104245;-77
2021/03/13 00:11:37;;;;;;;58.43;31.07;;;;;;;0.67;66.10;100497.06;125601;1100;104239;-77
2021/03/13 00:14:06;;;;;;;62.23;32.37;;;;;;;0.63;66.23;100495.02;125603;1097;104178;-77
2021/03/13 00:16:35;;;;;;;56.93;30.63;;;;;;;0.56;66.20;100486.70;125605;1099;104287;-77
2021/03/13 00:19:04;;;;;;;56.07;28.40;;;;;;;0.48;66.62;100480.95;125647;1099;104372;-77
2021/03/13 00:21:33;;;;;;;58.60;29.73;;;;;;;0.38;66.13;100471.63;125622;1099;104216;-77
2021/03/13 00:24:04;;;;;;;58.47;30.70;;;;;;;0.31;66.13;100480.59;125576;1099;104286;-77
2021/03/13 00:26:33;;;;;;;53.97;30.20;;;;;;;0.26;66.68;100481.02;125529;1097;104140;-77
2021/03/13 00:29:03;;;;;;;52.27;27.97;;;;;;;0.24;66.15;100477.42;125607;1099;104303;-77
2021/03/13 00:31:31;;;;;;;53.97;29.50;;;;;;;0.22;66.12;100481.55;125643;1099;104171;-77
2021/03/13 00:34:00;;;;;;;55.87;30.57;;;;;;;0.18;66.50;100485.59;125686;1098;104242;-77
2021/03/13 00:36:29;;;;;;;58.33;30.33;;;;;;;0.20;66.35;100489.17;125597;1097;104300;-77
2021/03/13 00:38:58;;;;;;;56.87;29.77;;;;;;;0.22;67.00;100485.05;125627;1099;104248;-77
2021/03/13 00:41:27;;;;;;;56.20;31.10;;;;;;;0.26;67.29;100484.48;125606;1099;104165;-77
2021/03/13 00:43:56;;;;;;;54.87;28.60;;;;;;;0.25;66.63;100480.13;125594;1099;104172;-77
2021/03/13 00:46:25;;;;;;;53.43;28.73;;;;;;;0.17;66.53;100486.36;125598;1099;104251;-77
2021/03/13 00:48:53;;;;;;;59.80;31.60;;;;;;;0.13;67.00;100484.34;125631;1097;104424;-77
2021/03/13 00:51:22;;;;;;;56.33;29.77;;;;;;;0.07;66.64;100473.55;125614;1099;104377;-77
2021/03/13 00:53:51;;;;;;;62.20;32.80;;;;;;;0.03;66.46;100472.39;125618;1099;104172;-77
2021/03/13 00:56:20;;;;;;;62.27;31.77;;;;;;;0.04;66.47;100474.20;125599;1099;104238;-77
2021/03/13 00:58:49;;;;;;;58.10;32.50;;;;;;;0.07;67.40;100473.55;125622;1097;104169;-77
2021/03/13 01:01:18;;;;;;;64.80;33.97;;;;;;;0.11;66.81;100467.82;125653;1099;104295;-77
2021/03/13 01:03:47;;;;;;;61.80;32.33;;;;;;;0.14;67.22;100470.64;125617;1099;104242;-77
2021/03/13 01:06:16;;;;;;;57.07;31.90;;;;;;;0.16;67.32;100474.26;125637;1099;104178;-77
2021/03/13 01:08:44;;;;;;;54.73;28.73;;;;;;;0.15;67.15;100468.17;125624;1099;104200;-77
2021/03/13 01:11:17;;;;;;;55.57;29.73;;;;;;;0.16;66.86;100476.84;125667;1099;104219;-77
2021/03/13 01:13:49;;;;;;;55.27;28.60;;;;;;;0.16;67.46;100477.73;125647;1098;104248;-77
2021/03/13 01:16:18;;;;;;;54.60;29.37;;;;;;;0.13;66.54;100482.66;125489;1099;104268;-77
2021/03/13 01:18:48;;;;;;;59.15;31.40;;;;;;;0.08;66.62;100488.23;125616;1099;104159;-77
2021/03/13 01:21:20;;;;;;;56.30;29.03;;;;;;;0.03;67.34;100486.98;125599;1099;104294;-79
2021/03/13 01:23:50;;;;;;;58.10;31.90;;;;;;;-0.01;66.43;100496.17;125657;1099;104299;-78
2021/03/13 01:26:20;;;;;;;57.73;30.87;;;;;;;0.01;67.50;100488.55;125612;1099;104361;-78
2021/03/13 01:28:50;;;;;;;52.93;29.27;;;;;;;0.03;67.34;100497.30;125583;1098;104169;-76
2021/03/13 01:31:28;;;;;;;57.30;30.17;;;;;;;0.04;66.81;100488.80;125650;1099;105659;-77
2021/03/13 01:33:57;;;;;;;58.73;30.83;;;;;;;0.04;66.93;100499.11;125662;1099;104195;-77
2021/03/13 01:36:26;;;;;;;59.23;30.40;;;;;;;0.00;67.45;100495.41;125594;1099;104222;-77
2021/03/13 01:38:55;;;;;;;58.57;30.80;;;;;;;0.00;67.41;100503.15;125603;1099;104210;-77
2021/03/13 01:41:24;;;;;;;56.77;30.37;;;;;;;0.04;67.52;100492.27;125615;1098;104277;-77
2021/03/13 01:43:53;;;;;;;58.77;30.77;;;;;;;0.08;67.06;100488.23;125660;1098;104163;-77
2021/03/13 01:46:22;;;;;;;56.07;29.33;;;;;;;0.05;67.63;100494.08;125667;1098;104175;-77
2021/03/13 01:48:53;;;;;;;57.53;30.47;;;;;;;-0.01;67.58;100489.33;125600;1098;107448;-77
2021/03/13 01:51:25;;;;;;;57.83;30.40;;;;;;;-0.03;67.19;100508.06;125651;1099;104172;-78
2021/03/13 01:53:56;;;;;;;57.30;29.50;;;;;;;-0.04;67.40;100507.14;125593;1099;104191;-78
2021/03/13 01:56:26;;;;;;;55.00;29.33;;;;;;;-0.02;67.53;100509.84;125592;1099;104175;-78
2021/03/13 01:58:57;;;;;;;56.70;28.73;;;;;;;-0.03;67.41;100502.91;125576;1099;104271;-78
2021/03/13 02:01:40;;;;;;;56.90;29.30;;;;;;;-0.05;67.60;100500.21;125663;1099;104245;-78
2021/03/13 02:04:10;;;;;;;59.03;30.40;;;;;;;-0.08;67.32;100501.63;125659;1099;104275;-77
2021/03/13 02:06:39;;;;;;;57.73;30.90;;;;;;;-0.07;67.40;100495.70;125580;1099;104217;-77
2021/03/13 02:09:19;;;;;;;59.33;30.37;;;;;;;-0.04;68.02;100495.94;125590;1099;104220;-78
2021/03/13 02:12:00;;;;;;;54.67;29.90;;;;;;;-0.05;67.88;100496.70;125650;1099;104200;-78
2021/03/13 02:14:36;;;;;;;59.20;29.53;;;;;;;-0.02;68.01;100500.45;125640;1099;104664;-78
2021/03/13 02:17:16;;;;;;;59.77;30.80;;;;;;;0.01;67.57;100494.61;125659;1099;104248;-78
2021/03/13 02:20:04;;;;;;;58.77;29.73;;;;;;;0.02;67.31;100490.33;125546;1099;107101;-78
2021/03/13 02:22:39;;;;;;;56.17;30.40;;;;;;;-0.02;67.65;100489.20;125616;1099;104172;-78
2021/03/13 02:25:56;;;;;;;60.53;30.77;;;;;;;-0.04;67.79;100490.78;125633;1099;104173;-78
2021/03/13 02:28:41;;;;;;;59.27;31.23;;;;;;;-0.04;67.67;100496.83;125601;1097;104357;-78
2021/03/13 02:31:11;;;;;;;59.07;29.90;;;;;;;-0.03;67.21;100488.31;125670;1098;104307;-78
2021/03/13 02:33:43;;;;;;;60.60;31.17;;;;;;;-0.03;67.08;100490.89;125610;1099;104200;-77
2021/03/13 02:36:31;;;;;;;55.83;30.20;;;;;;;0.00;67.29;100492.83;125657;1099;104225;-78
2021/03/13 02:39:08;;;;;;;56.30;29.93;;;;;;;0.01;67.65;100488.55;125624;1099;104179;-78
2021/03/13 02:41:44;;;;;;;59.07;31.23;;;;;;;-0.03;67.49;100497.75;125659;1099;104197;-77
2021/03/13 02:44:16;;;;;;;56.23;31.07;;;;;;;-0.07;67.67;100490.54;125629;1097;104291;-78
2021/03/13 02:46:52;;;;;;;58.43;30.07;;;;;;;-0.08;67.34;100499.97;125578;1099;104159;-78
2021/03/13 02:49:26;;;;;;;55.07;30.87;;;;;;;-0.05;67.29;100497.63;125540;1099;104175;-78
2021/03/13 02:52:02;;;;;;;57.93;31.27;;;;;;;-0.05;67.72;100500.21;125608;1099;104296;-77
2021/03/13 02:54:33;;;;;;;57.67;29.97;;;;;;;-0.11;68.02;100498.80;125635;1099;105027;-78
2021/03/13 02:57:03;;;;;;;64.20;32.70;;;;;;;-0.16;67.19;100500.14;125620;1099;104316;-78
2021/03/13 02:59:36;;;;;;;63.27;30.80;;;;;;;-0.20;67.76;100504.17;125546;1098;104184;-78
2021/03/13 03:02:06;;;;;;;60.00;31.43;;;;;;;-0.26;67.29;100503.69;125644;1099;104300;-79
2021/03/13 03:04:37;;;;;;;60.10;30.23;;;;;;;-0.31;67.38;100504.98;125613;1099;104166;-78
2021/03/13 03:07:08;;;;;;;60.13;30.87;;;;;;;-0.39;67.81;100509.53;125668;1099;104290;-78
2021/03/13 03:09:39;;;;;;;55.80;30.20;;;;;;;-0.44;68.16;100506.58;125575;1099;104428;-78
2021/03/13 03:12:10;;;;;;;65.77;32.83;;;;;;;-0.47;67.43;100508.91;125606;1097;104256;-78
2021/03/13 03:14:42;;;;;;;66.15;31.68;;;;;;;-0.50;68.48;100508.67;125616;1099;104171;-78
2021/03/13 03:17:13;;;;;;;61.27;32.67;;;;;;;-0.52;68.27;100510.23;125568;1099;104204;-78
2021/03/13 03:19:46;;;;;;;58.27;30.77;;;;;;;-0.52;68.16;100499.92;125618;1098;104174;-78
2021/03/13 03:22:17;;;;;;;59.83;30.40;;;;;;;-0.55;67.92;100502.26;125636;1099;104248;-78
2021/03/13 03:24:50;;;;;;;58.10;30.57;;;;;;;-0.59;67.66;100501.13;125611;1099;104188;-78
2021/03/13 03:27:19;;;;;;;61.70;31.93;;;;;;;-0.61;68.00;100504.34;125645;1099;104233;-78
2021/03/13 03:29:50;;;;;;;63.77;33.40;;;;;;;-0.63;68.25;100495.60;125605;1099;104760;-78
2021/03/13 03:32:19;;;;;;;62.67;33.03;;;;;;;-0.68;67.38;100490.08;125612;1099;104329;-79
2021/03/13 03:34:48;;;;;;;66.40;34.87;;;;;;;-0.68;68.56;100486.61;125539;1099;104326;-78
2021/03/13 03:37:41;;;;;;;64.47;33.03;;;;;;;-0.69;67.96;100487.38;125567;1097;104213;-78
2021/03/13 03:40:30;;;;;;;64.23;32.53;;;;;;;-0.77;68.41;100487.66;125489;1099;104204;-76
2021/03/13 03:43:03;;;;;;;62.23;30.80;;;;;;;-0.84;68.03;100485.38;125602;1099;104213;-77
2021/03/13 03:45:34;;;;;;;61.53;32.30;;;;;;;-0.88;68.56;100483.31;125686;1099;104245;-77
2021/03/13 03:48:07;;;;;;;60.17;31.93;;;;;;;-0.90;67.54;100484.88;125555;1099;104322;-77
2021/03/13 03:50:37;;;;;;;60.63;32.80;;;;;;;-0.91;67.60;100483.07;125572;1098;104609;-78
2021/03/13 03:53:20;;;;;;;61.03;31.10;;;;;;;-0.84;68.90;100487.03;125658;1099;104227;-78
2021/03/13 03:55:52;;;;;;;59.13;30.87;;;;;;;-0.81;68.96;100490.78;125635;1099;104358;-77
2021/03/13 03:58:25;;;;;;;64.57;32.23;;;;;;;-0.77;68.07;100487.66;125624;1099;104293;-77
2021/03/13 04:00:58;;;;;;;58.90;31.53;;;;;;;-0.74;68.16;100487.90;125591;1099;104178;-77
2021/03/13 04:03:30;;;;;;;62.47;32.30;;;;;;;-0.71;68.39;100489.83;125599;1099;104309;-77
2021/03/13 04:05:59;;;;;;;63.37;33.47;;;;;;;-0.69;68.72;100492.53;125584;1099;104299;-77
2021/03/13 04:08:29;;;;;;;63.83;32.53;;;;;;;-0.66;68.17;100487.63;125644;1099;104217;-77
2021/03/13 04:11:01;;;;;;;68.87;34.77;;;;;;;-0.62;68.95;100492.26;125574;1099;104373;-77
2021/03/13 04:13:31;;;;;;;64.90;34.00;;;;;;;-0.61;69.01;100483.73;125623;1099;104190;-77
2021/03/13 04:16:00;;;;;;;66.43;33.70;;;;;;;-0.62;67.92;100485.41;125633;1099;104165;-77
2021/03/13 04:18:30;;;;;;;67.93;34.23;;;;;;;-0.60;67.92;100486.42;125613;1099;104163;-78
2021/03/13 04:20:59;;;;;;;65.53;33.57;;;;;;;-0.59;68.19;100482.19;125610;1099;104184;-77
2021/03/13 04:23:28;;;;;;;60.73;32.37;;;;;;;-0.58;68.82;100487.47;125570;1099;104178;-78
2021/03/13 04:25:59;;;;;;;65.80;33.80;;;;;;;-0.58;68.63;100479.73;125634;1099;104302;-78
2021/03/13 04:28:32;;;;;;;65.67;33.83;;;;;;;-0.58;68.79;100476.23;125569;1099;104169;-77
2021/03/13 04:31:04;;;;;;;63.37;33.57;;;;;;;-0.60;68.01;100485.54;125575;1098;104197;-78
2021/03/13 04:33:35;;;;;;;63.63;33.33;;;;;;;-0.63;68.74;100483.60;125637;1099;104204;-78
2021/03/13 04:36:06;;;;;;;58.77;29.27;;;;;;;-0.64;69.04;100489.56;125617;1098;104248;-78
2021/03/13 04:38:37;;;;;;;62.73;32.10;;;;;;;-0.69;68.60;100488.27;125641;1099;104171;-77
2021/03/13 04:41:07;;;;;;;62.33;31.87;;;;;;;-0.67;68.19;100481.58;125549;1099;104369;-78
2021/03/13 04:43:38;;;;;;;66.40;33.93;;;;;;;-0.64;68.91;100483.48;125618;1098;104647;-78
2021/03/13 04:46:07;;;;;;;65.20;32.20;;;;;;;-0.66;67.72;100487.63;125602;1098;104293;-78
2021/03/13 04:48:37;;;;;;;65.13;33.57;;;;;;;-0.68;68.57;100482.34;125590;1099;104297;-78
2021/03/13 04:51:07;;;;;;;66.20;32.93;;;;;;;-0.71;68.88;100486.36;125639;1099;104323;-78
2021/03/13 04:53:36;;;;;;;60.77;31.93;;;;;;;-0.73;67.88;100488.82;125540;1099;104300;-78
2021/03/13 04:56:06;;;;;;;63.77;33.63;;;;;;;-0.71;67.77;100488.94;125648;1099;104188;-78
2021/03/13 04:58:35;;;;;;;60.60;32.47;;;;;;;-0.68;67.81;100486.61;125608;1099;104203;-78
2021/03/13 05:01:05;;;;;;;64.23;32.13;;;;;;;-0.64;69.04;100488.63;125516;1099;104248;-78
2021/03/13 05:03:33;;;;;;;63.70;33.93;;;;;;;-0.60;69.01;100491.58;125627;1099;104194;-78
2021/03/13 05:06:02;;;;;;;62.60;32.73;;;;;;;-0.52;68.97;100496.46;125572;1099;104306;-78
2021/03/13 05:08:31;;;;;;;65.37;33.97;;;;;;;-0.40;68.70;100498.33;125582;1099;104198;-78
2021/03/13 05:11:00;;;;;;;65.67;34.20;;;;;;;-0.26;68.57;100489.09;125625;1098;104169;-78
2021/03/13 05:13:29;;;;;;;68.43;34.97;;;;;;;-0.14;69.19;100478.86;125631;1099;104251;-78
2021/03/13 05:15:59;;;;;;;62.93;34.47;;;;;;;-0.05;67.89;100482.16;125640;1099;104213;-77
2021/03/13 05:18:28;;;;;;;61.80;33.90;;;;;;;0.04;68.73;100483.63;125580;1099;102449;-78
2021/03/13 05:20:57;;;;;;;67.87;34.90;;;;;;;0.14;68.62;100480.95;125583;1098;104309;-78
2021/03/13 05:23:26;;;;;;;67.07;35.83;;;;;;;0.26;68.69;100491.34;125570;1099;110791;-77
2021/03/13 05:25:55;;;;;;;65.53;34.83;;;;;;;0.39;68.32;100488.00;125667;1099;104241;-77
2021/03/13 05:28:24;;;;;;;66.50;35.80;;;;;;;0.53;68.20;100487.35;125584;1099;104241;-77
2021/03/13 05:30:53;;;;;;;68.60;36.83;;;;;;;0.68;68.30;100488.50;125638;1099;104175;-78
2021/03/13 05:33:21;;;;;;;70.23;39.33;;;;;;;0.83;68.78;100483.59;125663;1098;104162;-78
2021/03/13 05:35:50;;;;;;;73.57;40.13;;;;;;;1.00;68.60;100479.67;125333;1099;104255;-77
2021/03/13 05:38:19;;;;;;;68.17;38.70;;;;;;;1.15;68.56;100489.33;125615;1099;104206;-78
2021/03/13 05:40:48;;;;;;;67.93;36.57;;;;;;;1.28;68.55;100491.11;125653;1099;104177;-78
2021/03/13 05:43:17;;;;;;;64.37;35.00;;;;;;;1.39;68.37;100490.22;125604;1099;104165;-77
2021/03/13 05:45:48;;;;;;;62.33;34.40;;;;;;;1.42;68.23;100480.10;125627;1099;104176;-78
2021/03/13 05:48:18;;;;;;;63.60;33.90;;;;;;;1.42;68.41;100482.69;125665;1099;104152;-78
2021/03/13 05:50:47;;;;;;;62.40;34.90;;;;;;;1.40;68.31;100479.98;125620;1099;104576;-77
2021/03/13 05:53:16;;;;;;;72.23;38.57;;;;;;;1.40;68.36;100482.58;125615;1099;104172;-78
2021/03/13 05:55:45;;;;;;;68.77;38.67;;;;;;;1.48;68.31;100482.20;125576;1099;104172;-77
2021/03/13 05:58:14;;;;;;;71.43;40.60;;;;;;;1.49;68.10;100491.77;125616;1099;104195;-77
2021/03/13 06:00:43;;;;;;;77.07;44.07;;;;;;;1.51;68.19;100500.53;125619;1099;104280;-77
2021/03/13 06:03:12;;;;;;;78.80;43.57;;;;;;;1.56;68.21;100507.84;125605;1099;104178;-77
2021/03/13 06:05:42;;;;;;;72.73;40.00;;;;;;;1.59;68.59;100509.72;125625;1099;104293;-77
2021/03/13 06:08:11;;;;;;;73.50;41.13;;;;;;;1.62;68.02;100520.29;125610;1099;104316;-77
2021/03/13 06:10:40;;;;;;;75.43;41.53;;;;;;;1.65;68.49;100519.63;125643;1099;104176;-77
2021/03/13 06:13:10;;;;;;;73.17;40.17;;;;;;;1.71;68.38;100522.65;125614;1098;104271;-77
2021/03/13 06:15:40;;;;;;;66.70;37.83;;;;;;;1.73;68.05;100521.98;125650;1099;104181;-77
2021/03/13 06:18:09;;;;;;;83.23;43.77;;;;;;;1.69;67.98;100530.30;125630;1099;104303;-77
2021/03/13 06:20:39;;;;;;;81.67;45.67;;;;;;;1.67;68.08;100534.48;125647;1099;104271;-78
2021/03/13 06:23:14;;;;;;;92.43;47.93;;;;;;;1.62;67.88;100533.22;125615;1099;105437;-78
2021/03/13 06:25:44;;;;;;;93.70;50.23;;;;;;;1.56;67.82;100544.05;125570;1099;104242;-78
2021/03/13 06:28:17;;;;;;;100.37;52.73;;;;;;;1.49;68.22;100536.63;125609;1098;104274;-78
2021/03/13 06:30:48;;;;;;;105.60;54.53;;;;;;;1.49;68.02;100530.56;125599;1099;104299;-77
2021/03/13 06:33:25;;;;;;;101.50;53.57;;;;;;;1.53;68.16;100535.18;125532;1099;104204;-77
2021/03/13 06:35:55;;;;;;;95.57;50.07;;;;;;;1.56;68.16;100536.29;125617;1099;104201;-77
2021/03/13 06:38:26;;;;;;;95.93;50.73;;;;;;;1.58;68.40;100539.88;125656;1099;104762;-77
2021/03/13 06:40:57;;;;;;;93.93;47.27;;;;;;;1.58;68.08;100545.05;125578;1099;104217;-77
2021/03/13 06:43:28;;;;;;;89.37;48.30;;;;;;;1.56;67.93;100548.33;125633;1099;104290;-77
2021/03/13 06:46:04;;;;;;;91.30;48.50;;;;;;;1.56;68.36;100556.98;125604;1099;104188;-77
2021/03/13 06:48:36;;;;;;;93.73;51.40;;;;;;;1.60;68.15;100563.27;125579;1099;104168;-77
2021/03/13 06:51:26;;;;;;;92.40;50.43;;;;;;;1.68;68.56;100567.30;125600;1099;104268;-77
2021/03/13 06:54:07;;;;;;;96.90;50.57;;;;;;;1.76;68.31;100561.01;125604;1099;104229;-77
2021/03/13 06:56:38;;;;;;;97.03;52.30;;;;;;;1.84;67.90;100570.98;125643;1099;104341;-78
2021/03/13 06:59:23;;;;;;;97.40;54.00;;;;;;;1.95;68.65;100583.03;125619;1099;104309;-77
2021/03/13 07:02:04;;;;;;;97.37;54.03;;;;;;;2.07;68.38;100575.22;125111;1099;104175;-77
2021/03/13 07:04:35;;;;;;;97.30;54.27;;;;;;;2.15;68.79;100577.56;125655;1099;104392;-77
2021/03/13 07:07:05;;;;;;;108.13;59.17;;;;;;;2.26;68.28;100585.17;125611;1099;104306;-77
2021/03/13 07:09:46;;;;;;;105.67;55.17;;;;;;;2.26;68.10;100579.98;125619;1099;104303;-77
2021/03/13 07:12:24;;;;;;;111.33;59.27;;;;;;;2.21;68.48;100584.84;125573;1099;104175;-77
2021/03/13 07:14:54;;;;;;;110.47;58.07;;;;;;;2.17;68.25;100588.03;125619;1098;104300;-77
2021/03/13 07:17:24;;;;;;;111.53;56.77;;;;;;;2.11;67.72;100585.01;125608;1098;104303;-77
2021/03/13 07:19:52;;;;;;;117.07;62.17;;;;;;;2.13;68.61;100589.48;125650;1098;104347;-77
2021/03/13 07:22:22;;;;;;;111.27;60.00;;;;;;;2.26;68.47;100587.76;125623;1099;104298;-78
2021/03/13 07:24:58;;;;;;;110.27;59.07;;;;;;;2.39;68.04;100599.90;125575;1099;104172;-78
2021/03/13 07:27:30;;;;;;;114.77;61.23;;;;;;;2.51;68.21;100591.28;125655;1099;104192;-78
2021/03/13 07:29:59;;;;;;;113.67;63.13;;;;;;;2.63;68.50;100591.24;125605;1099;104210;-78
2021/03/13 07:32:31;;;;;;;113.83;61.43;;;;;;;2.75;68.40;100600.64;125653;1099;104185;-77
2021/03/13 07:35:04;;;;;;;114.20;64.17;;;;;;;2.86;68.50;100597.08;125565;1099;104182;-77
2021/03/13 07:37:34;;;;;;;115.00;65.10;;;;;;;2.96;68.71;100589.14;125581;1099;104255;-77
2021/03/13 07:40:06;;;;;;;107.13;59.33;;;;;;;3.03;68.51;100583.56;125643;1098;104188;-78
2021/03/13 07:42:40;;;;;;;108.87;60.07;;;;;;;3.11;68.66;100596.15;125635;1099;104306;-77
2021/03/13 07:45:12;;;;;;;115.67;62.13;;;;;;;3.20;68.33;100600.24;125610;1099;104653;-77
2021/03/13 07:47:42;;;;;;;99.47;55.87;;;;;;;3.27;69.13;100585.98;125638;1099;104347;-78
2021/03/13 07:50:13;;;;;;;101.70;58.13;;;;;;;3.37;68.77;100595.29;125532;1099;104411;-77
2021/03/13 07:52:44;;;;;;;96.63;53.97;;;;;;;3.48;68.16;100599.48;125601;1099;104335;-78
2021/03/13 07:55:15;;;;;;;94.17;52.83;;;;;;;3.60;67.98;100587.31;125535;1099;104246;-77
2021/03/13 07:57:45;;;;;;;87.77;48.33;;;;;;;3.71;68.40;100594.88;125615;1099;104193;-77
2021/03/13 08:00:16;;;;;;;90.87;51.23;;;;;;;3.84;68.52;100584.48;125606;1098;104185;-77
2021/03/13 08:02:46;;;;;;;82.53;45.43;;;;;;;3.97;68.22;100586.16;125593;1099;104210;-77
2021/03/13 08:05:16;;;;;;;91.87;50.67;;;;;;;4.08;68.80;100589.44;125615;1099;104239;-77
2021/03/13 08:07:57;;;;;;;98.13;52.33;;;;;;;4.20;68.55;100585.02;125613;1099;104205;-77
2021/03/13 08:10:41;;;;;;;91.97;51.97;;;;;;;4.30;67.99;100577.00;125576;1099;104181;-78
2021/03/13 08:13:12;;;;;;;90.17;50.07;;;;;;;4.41;68.01;100579.34;125613;1099;104165;-77
2021/03/13 08:15:46;;;;;;;91.00;49.70;;;;;;;4.47;68.44;100567.66;125612;1099;104178;-77
2021/03/13 08:18:38;;;;;;;90.22;50.73;;;;;;;4.58;68.17;100572.58;125612;1099;104306;-77
2021/03/13 08:21:33;;;;;;;81.50;47.57;;;;;;;4.72;68.14;100563.95;125596;1099;104271;-75
2021/03/13 08:24:03;;;;;;;82.27;46.77;;;;;;;4.90;67.97;100566.73;125626;1099;104322;-75
2021/03/13 08:26:59;;;;;;;84.03;48.80;;;;;;;5.04;67.91;100571.03;125532;1098;105415;-75
2021/03/13 08:29:53;;;;;;;77.93;43.27;;;;;;;5.24;67.85;100573.92;125564;1099;104374;-75
2021/03/13 08:32:48;;;;;;;77.07;44.60;;;;;;;5.46;67.98;100575.16;125628;1099;104174;-75
2021/03/13 08:35:30;;;;;;;73.80;43.90;;;;;;;5.63;67.62;100576.13;125616;1099;104181;-75
2021/03/13 08:37:58;;;;;;;77.50;43.60;;;;;;;5.73;67.41;100581.94;125659;1099;104175;-75
2021/03/13 08:40:28;;;;;;;75.13;44.30;;;;;;;5.70;67.16;100578.24;125692;1099;104251;-75
2021/03/13 08:42:57;;;;;;;80.00;44.95;;;;;;;5.67;67.27;100583.28;125580;1099;104181;-75
2021/03/13 08:45:34;;;;;;;69.80;42.10;;;;;;;5.69;67.64;100577.36;125623;1099;105256;-75
2021/03/13 08:48:04;;;;;;;74.03;43.17;;;;;;;5.80;67.43;100571.84;125646;1099;105033;-75
2021/03/13 08:50:54;;;;;;;74.23;44.17;;;;;;;5.90;67.62;100579.36;125687;1099;104198;-74
2021/03/13 08:53:35;;;;;;;76.37;44.50;;;;;;;5.95;67.70;100583.11;125656;1099;104172;-75
2021/03/13 08:56:18;;;;;;;79.57;45.40;;;;;;;6.00;67.20;100592.14;125584;1099;104371;-75
2021/03/13 08:58:47;;;;;;;75.13;44.07;;;;;;;6.08;67.88;100585.63;125654;1099;104182;-75
2021/03/13 09:01:21;;;;;;;77.73;44.20;;;;;;;6.17;67.24;100584.33;125612;1099;104175;-75
2021/03/13 09:03:51;;;;;;;71.10;41.40;;;;;;;6.24;67.47;100582.14;125648;1099;104232;-76
2021/03/13 09:06:22;;;;;;;69.43;40.37;;;;;;;6.36;67.32;100579.32;125635;1099;104303;-75
2021/03/13 09:08:51;;;;;;;64.63;36.63;;;;;;;6.45;67.42;100587.63;125629;1099;104326;-75
2021/03/13 09:11:27;;;;;;;48.67;26.30;;;;;;;6.55;67.45;100590.73;125650;1099;104245;-75
2021/03/13 09:14:00;;;;;;;56.60;33.07;;;;;;;6.60;67.43;100584.05;125688;1099;104344;-75
2021/03/13 09:16:35;;;;;;;61.93;33.33;;;;;;;6.63;66.99;100569.45;125615;1099;104230;-76
2021/03/13 09:19:06;;;;;;;67.90;39.23;;;;;;;6.54;66.64;100578.50;125698;1099;104187;-75
2021/03/13 09:21:47;;;;;;;69.33;38.47;;;;;;;6.48;66.60;100576.45;125615;1098;104204;-76
2021/03/13 09:24:18;;;;;;;76.33;42.30;;;;;;;6.45;66.71;100572.00;125628;1099;104181;-75
2021/03/13 09:26:53;;;;;;;72.45;44.25;;;;;;;6.41;66.50;100577.84;125544;1099;104235;-75
2021/03/13 09:29:33;;;;;;;75.73;43.50;;;;;;;6.40;66.45;100567.34;125639;1099;104178;-76
2021/03/13 09:32:05;;;;;;;87.87;47.70;;;;;;;6.39;66.66;100581.17;125623;1099;104783;-76
2021/03/13 09:34:38;;;;;;;81.73;46.70;;;;;;;6.42;66.69;100577.05;125606;1099;104306;-76
2021/03/13 09:37:17;;;;;;;71.43;40.47;;;;;;;6.47;66.96;100575.56;125641;1099;104220;-76
2021/03/13 09:39:48;;;;;;;77.50;42.23;;;;;;;6.52;67.05;100569.72;125588;1099;104168;-76
2021/03/13 09:42:19;;;;;;;66.57;37.63;;;;;;;6.57;66.45;100581.27;125671;1099;104785;-76
2021/03/13 09:44:50;;;;;;;73.20;40.83;;;;;;;6.62;66.69;100570.28;125673;1098;104261;-76
2021/03/13 09:47:28;;;;;;;69.77;39.13;;;;;;;6.64;66.60;100570.37;125603;1099;104193;-76
2021/03/13 09:49:58;;;;;;;65.83;37.37;;;;;;;6.65;66.61;100575.66;125680;1099;104676;-75
2021/03/13 09:52:29;;;;;;;68.00;37.60;;;;;;;6.68;66.67;100580.12;125598;1099;104328;-75
2021/03/13 09:55:04;;;;;;;67.15;39.15;;;;;;;6.72;66.85;100575.98;125653;1099;104187;-75
2021/03/13 09:57:35;;;;;;;62.20;35.67;;;;;;;6.78;66.44;100576.30;125589;1099;104207;-75
2021/03/13 10:00:07;;;;;;;61.17;35.57;;;;;;;6.83;66.64;100578.31;125631;1099;104166;-76
2021/03/13 10:02:36;;;;;;;56.80;32.55;;;;;;;6.90;66.81;100573.41;125574;1099;104248;-75
2021/03/13 10:05:07;;;;;;;58.47;33.43;;;;;;;6.95;66.92;100574.54;125663;1098;104309;-75
2021/03/13 10:07:41;;;;;;;48.47;26.20;;;;;;;7.04;66.90;100574.12;125601;1099;104204;-76
2021/03/13 10:10:14;;;;;;;50.00;28.00;;;;;;;7.14;66.80;100576.40;125659;1099;104309;-76
2021/03/13 10:12:48;;;;;;;39.03;21.70;;;;;;;7.16;66.75;100580.86;125587;1099;104579;-76
2021/03/13 10:15:19;;;;;;;39.07;20.83;;;;;;;7.16;66.95;100578.24;125648;1099;104178;-76
2021/03/13 10:18:00;;;;;;;36.15;19.60;;;;;;;7.18;66.82;100575.71;125647;1099;104232;-76
2021/03/13 10:20:33;;;;;;;39.57;21.43;;;;;;;7.16;67.00;100574.75;125667;1099;104200;-76
2021/03/13 10:23:07;;;;;;;42.53;21.47;;;;;;;7.20;66.92;100568.87;125693;1099;104217;-76
2021/03/13 10:25:36;;;;;;;;;;;;;;;7.25;67.00;100569.11;125661;1099;104175;-76
2021/03/13 10:28:08;;;;;;;38.27;20.80;;;;;;;7.27;66.48;100570.07;125643;1099;104253;-75
2021/03/13 10:30:38;;;;;;;44.83;24.87;;;;;;;7.32;67.06;100568.58;125661;1099;104200;-75
2021/03/13 10:33:07;;;;;;;42.30;23.03;;;;;;;7.37;66.77;100562.78;125629;1099;104354;-75
2021/03/13 10:35:37;;;;;;;41.87;23.13;;;;;;;7.39;66.73;100565.47;125604;1099;104358;-75
2021/03/13 10:38:18;;;;;;;37.40;20.57;;;;;;;7.43;66.86;100564.77;125598;1099;105403;-75
2021/03/13 10:40:49;;;;;;;44.30;20.83;;;;;;;7.48;67.04;100558.09;125623;1099;104166;-76
2021/03/13 10:43:24;;;;;;;41.53;21.07;;;;;;;7.49;66.55;100564.20;125670;1097;104296;-76
2021/03/13 10:46:10;;;;;;;36.30;20.63;;;;;;;7.49;66.77;100564.20;125640;1099;104245;-75
2021/03/13 10:48:57;;;;;;;34.07;18.50;;;;;;;7.49;67.12;100559.86;125650;1099;104295;-75
2021/03/13 10:51:28;;;;;;;32.70;18.27;;;;;;;7.44;66.82;100561.36;125640;1099;104182;-76
2021/03/13 10:53:59;;;;;;;32.57;16.00;;;;;;;7.41;67.02;100552.48;125636;1099;104361;-76
2021/03/13 10:56:40;;;;;;;32.10;16.43;;;;;;;7.33;66.73;100541.66;125632;1099;104224;-75
2021/03/13 10:59:10;;;;;;;27.40;14.73;;;;;;;7.30;67.20;100546.73;125681;1099;104168;-75
2021/03/13 11:01:44;;;;;;;24.20;12.13;;;;;;;7.30;67.22;100542.40;125611;1099;104162;-75
2021/03/13 11:04:14;;;;;;;27.00;13.33;;;;;;;7.30;67.21;100537.18;125583;1099;104640;-76
2021/03/13 11:06:42;;;;;;;27.80;13.90;;;;;;;7.28;67.18;100538.83;125649;1099;104245;-76
2021/03/13 11:09:13;;;;;;;26.93;14.07;;;;;;;7.30;67.46;100534.56;125661;1099;104290;-76
2021/03/13 11:11:42;;;;;;;27.57;14.47;;;;;;;7.33;67.65;100537.33;125623;1099;104175;-76
2021/03/13 11:14:11;;;;;;;28.57;14.17;;;;;;;7.32;67.38;100530.34;125639;1099;104184;-75
2021/03/13 11:16:39;;;;;;;30.13;15.53;;;;;;;7.31;67.67;100528.54;125628;1099;104297;-75
2021/03/13 11:19:08;;;;;;;29.40;14.37;;;;;;;7.32;67.59;100534.64;125601;1099;104364;-76
2021/03/13 11:21:37;;;;;;;26.20;11.93;;;;;;;7.35;67.60;100534.80;125556;1099;104226;-76
2021/03/13 11:24:07;;;;;;;28.30;13.80;;;;;;;7.36;67.56;100531.38;125679;1099;104178;-76